sensor_id;sensor_type;location;lat;lon;timestamp;P1;durP1;ratioP1;P2;durP2;ratioP2
13590;SDS011;6866;50.778;7.206;2023-12-20T00:00:55;3.83;;;2.95;;
13590;SDS011;6866;50.778;7.206;2023-12-20T00:03:20;3.92;;;3.20;;
13590;SDS011;6866;50.778;7.206;2023-12-20T00:05:46;5.85;;;3.35;;
13590;SDS011;6866;50.778;7.206;2023-12-20T00:08:12;4.60;;;3.28;;
13590;SDS011;6866;50.778;7.206;2023-12-20T00:10:38;5.00;;;3.72;;
13590;SDS011;6866;50.778;7.206;2023-12-20T00:13:04;5.30;;;3.40;;
13590;SDS011;6866;50.778;7.206;2023-12-20T00:15:29;4.20;;;3.20;;
13590;SDS011;6866;50.778;7.206;2023-12-20T00:17:55;4.78;;;3.65;;
13590;SDS011;6866;50.778;7.206;2023-12-20T00:20:20;5.55;;;3.10;;
13590;SDS011;6866;50.778;7.206;2023-12-20T00:22:46;5.05;;;3.50;;
13590;SDS011;6866;50.778;7.206;2023-12-20T00:25:11;6.75;;;4.38;;
13590;SDS011;6866;50.778;7.206;2023-12-20T00:27:37;8.50;;;4.90;;
13590;SDS011;6866;50.778;7.206;2023-12-20T00:30:03;5.18;;;3.72;;
13590;SDS011;6866;50.778;7.206;2023-12-20T00:32:28;6.82;;;4.40;;
13590;SDS011;6866;50.778;7.206;2023-12-20T00:34:54;7.43;;;4.93;;
13590;SDS011;6866;50.778;7.206;2023-12-20T00:37:19;6.82;;;4.47;;
13590;SDS011;6866;50.778;7.206;2023-12-20T00:39:45;7.95;;;5.20;;
13590;SDS011;6866;50.778;7.206;2023-12-20T00:42:10;10.48;;;5.43;;
13590;SDS011;6866;50.778;7.206;2023-12-20T00:44:36;10.82;;;6.05;;
13590;SDS011;6866;50.778;7.206;2023-12-20T00:47:01;15.10;;;6.55;;
13590;SDS011;6866;50.778;7.206;2023-12-20T00:49:27;8.57;;;4.78;;
13590;SDS011;6866;50.778;7.206;2023-12-20T00:51:53;7.63;;;4.65;;
13590;SDS011;6866;50.778;7.206;2023-12-20T00:54:18;9.52;;;5.82;;
13590;SDS011;6866;50.778;7.206;2023-12-20T00:56:43;8.05;;;4.63;;
13590;SDS011;6866;50.778;7.206;2023-12-20T00:59:09;8.20;;;4.60;;
13590;SDS011;6866;50.778;7.206;2023-12-20T01:01:35;10.88;;;5.60;;
13590;SDS011;6866;50.778;7.206;2023-12-20T01:04:01;9.77;;;5.75;;
13590;SDS011;6866;50.778;7.206;2023-12-20T01:06:26;11.70;;;6.10;;
13590;SDS011;6866;50.778;7.206;2023-12-20T01:08:52;7.88;;;5.50;;
13590;SDS011;6866;50.778;7.206;2023-12-20T01:11:17;7.25;;;4.68;;
13590;SDS011;6866;50.778;7.206;2023-12-20T01:13:43;4.32;;;3.30;;
13590;SDS011;6866;50.778;7.206;2023-12-20T01:16:09;4.53;;;3.70;;
13590;SDS011;6866;50.778;7.206;2023-12-20T01:18:36;4.25;;;3.40;;
13590;SDS011;6866;50.778;7.206;2023-12-20T01:21:04;4.63;;;4.13;;
13590;SDS011;6866;50.778;7.206;2023-12-20T01:23:30;5.55;;;4.35;;
13590;SDS011;6866;50.778;7.206;2023-12-20T01:25:57;6.63;;;5.47;;
13590;SDS011;6866;50.778;7.206;2023-12-20T01:28:24;6.45;;;5.80;;
13590;SDS011;6866;50.778;7.206;2023-12-20T01:30:50;6.30;;;5.70;;
13590;SDS011;6866;50.778;7.206;2023-12-20T01:33:16;7.97;;;7.10;;
13590;SDS011;6866;50.778;7.206;2023-12-20T01:35:41;8.48;;;6.50;;
13590;SDS011;6866;50.778;7.206;2023-12-20T01:38:07;8.65;;;7.75;;
13590;SDS011;6866;50.778;7.206;2023-12-20T01:40:32;8.90;;;8.00;;
13590;SDS011;6866;50.778;7.206;2023-12-20T01:42:58;11.32;;;9.93;;
13590;SDS011;6866;50.778;7.206;2023-12-20T01:45:31;11.38;;;9.82;;
13590;SDS011;6866;50.778;7.206;2023-12-20T01:47:57;14.02;;;11.52;;
13590;SDS011;6866;50.778;7.206;2023-12-20T01:50:23;14.25;;;12.75;;
13590;SDS011;6866;50.778;7.206;2023-12-20T01:52:49;14.63;;;13.05;;
13590;SDS011;6866;50.778;7.206;2023-12-20T01:55:17;16.30;;;13.55;;
13590;SDS011;6866;50.778;7.206;2023-12-20T01:57:45;16.83;;;14.77;;
13590;SDS011;6866;50.778;7.206;2023-12-20T02:05:23;17.98;;;13.60;;
13590;SDS011;6866;50.778;7.206;2023-12-20T02:07:49;17.33;;;13.98;;
13590;SDS011;6866;50.778;7.206;2023-12-20T02:10:15;17.13;;;12.52;;
13590;SDS011;6866;50.778;7.206;2023-12-20T02:12:41;15.95;;;12.57;;
13590;SDS011;6866;50.778;7.206;2023-12-20T02:15:06;21.00;;;12.88;;
13590;SDS011;6866;50.778;7.206;2023-12-20T02:17:32;18.13;;;12.18;;
13590;SDS011;6866;50.778;7.206;2023-12-20T02:19:58;20.02;;;12.88;;
13590;SDS011;6866;50.778;7.206;2023-12-20T02:22:24;17.75;;;13.50;;
13590;SDS011;6866;50.778;7.206;2023-12-20T02:24:49;18.95;;;13.10;;
13590;SDS011;6866;50.778;7.206;2023-12-20T02:27:15;18.15;;;13.13;;
13590;SDS011;6866;50.778;7.206;2023-12-20T02:29:43;16.88;;;12.75;;
13590;SDS011;6866;50.778;7.206;2023-12-20T02:32:08;19.33;;;11.77;;
13590;SDS011;6866;50.778;7.206;2023-12-20T02:34:34;18.40;;;11.38;;
13590;SDS011;6866;50.778;7.206;2023-12-20T02:36:59;16.65;;;10.65;;
13590;SDS011;6866;50.778;7.206;2023-12-20T02:39:25;18.52;;;10.48;;
13590;SDS011;6866;50.778;7.206;2023-12-20T02:41:50;18.48;;;10.32;;
13590;SDS011;6866;50.778;7.206;2023-12-20T02:44:16;19.38;;;11.00;;
13590;SDS011;6866;50.778;7.206;2023-12-20T02:46:41;20.65;;;10.90;;
13590;SDS011;6866;50.778;7.206;2023-12-20T02:49:07;20.52;;;9.98;;
13590;SDS011;6866;50.778;7.206;2023-12-20T02:51:33;22.50;;;10.02;;
13590;SDS011;6866;50.778;7.206;2023-12-20T02:53:58;20.95;;;9.25;;
13590;SDS011;6866;50.778;7.206;2023-12-20T02:56:23;26.27;;;9.35;;
13590;SDS011;6866;50.778;7.206;2023-12-20T02:58:49;22.25;;;8.15;;
13590;SDS011;6866;50.778;7.206;2023-12-20T03:01:14;19.58;;;7.93;;
13590;SDS011;6866;50.778;7.206;2023-12-20T03:03:40;19.20;;;6.85;;
13590;SDS011;6866;50.778;7.206;2023-12-20T03:06:05;21.90;;;6.70;;
13590;SDS011;6866;50.778;7.206;2023-12-20T03:08:31;21.25;;;7.07;;
13590;SDS011;6866;50.778;7.206;2023-12-20T03:10:58;19.83;;;5.85;;
13590;SDS011;6866;50.778;7.206;2023-12-20T03:13:24;17.80;;;5.40;;
13590;SDS011;6866;50.778;7.206;2023-12-20T03:15:50;16.95;;;4.80;;
13590;SDS011;6866;50.778;7.206;2023-12-20T03:18:15;18.70;;;5.03;;
13590;SDS011;6866;50.778;7.206;2023-12-20T03:20:41;21.35;;;4.00;;
13590;SDS011;6866;50.778;7.206;2023-12-20T03:23:07;16.80;;;3.75;;
13590;SDS011;6866;50.778;7.206;2023-12-20T03:25:32;14.90;;;3.53;;
13590;SDS011;6866;50.778;7.206;2023-12-20T03:27:57;20.35;;;4.03;;
13590;SDS011;6866;50.778;7.206;2023-12-20T03:30:24;16.98;;;3.60;;
13590;SDS011;6866;50.778;7.206;2023-12-20T03:32:49;20.98;;;4.15;;
13590;SDS011;6866;50.778;7.206;2023-12-20T03:35:15;17.50;;;4.10;;
13590;SDS011;6866;50.778;7.206;2023-12-20T03:37:41;16.33;;;3.20;;
13590;SDS011;6866;50.778;7.206;2023-12-20T03:40:06;15.77;;;3.55;;
13590;SDS011;6866;50.778;7.206;2023-12-20T03:42:32;20.33;;;4.05;;
13590;SDS011;6866;50.778;7.206;2023-12-20T03:44:57;15.60;;;3.83;;
13590;SDS011;6866;50.778;7.206;2023-12-20T03:47:23;16.70;;;3.42;;
13590;SDS011;6866;50.778;7.206;2023-12-20T03:49:48;15.25;;;3.65;;
13590;SDS011;6866;50.778;7.206;2023-12-20T03:52:14;19.65;;;3.95;;
13590;SDS011;6866;50.778;7.206;2023-12-20T03:54:40;18.45;;;3.75;;
13590;SDS011;6866;50.778;7.206;2023-12-20T03:57:07;16.40;;;3.65;;
13590;SDS011;6866;50.778;7.206;2023-12-20T03:59:36;22.13;;;4.30;;
13590;SDS011;6866;50.778;7.206;2023-12-20T04:02:02;18.25;;;4.07;;
13590;SDS011;6866;50.778;7.206;2023-12-20T04:04:28;23.38;;;4.25;;
13590;SDS011;6866;50.778;7.206;2023-12-20T04:06:54;20.02;;;4.88;;
13590;SDS011;6866;50.778;7.206;2023-12-20T04:09:19;23.35;;;5.55;;
13590;SDS011;6866;50.778;7.206;2023-12-20T04:11:45;17.77;;;4.15;;
13590;SDS011;6866;50.778;7.206;2023-12-20T04:14:10;20.73;;;4.68;;
13590;SDS011;6866;50.778;7.206;2023-12-20T04:16:36;18.92;;;4.30;;
13590;SDS011;6866;50.778;7.206;2023-12-20T04:19:02;21.25;;;4.85;;
13590;SDS011;6866;50.778;7.206;2023-12-20T04:21:27;22.02;;;4.78;;
13590;SDS011;6866;50.778;7.206;2023-12-20T04:23:53;21.02;;;4.80;;
13590;SDS011;6866;50.778;7.206;2023-12-20T04:26:18;21.45;;;4.88;;
13590;SDS011;6866;50.778;7.206;2023-12-20T04:28:44;26.02;;;5.05;;
13590;SDS011;6866;50.778;7.206;2023-12-20T04:31:09;21.70;;;5.20;;
13590;SDS011;6866;50.778;7.206;2023-12-20T04:33:35;21.17;;;5.05;;
13590;SDS011;6866;50.778;7.206;2023-12-20T04:36:00;18.80;;;5.15;;
13590;SDS011;6866;50.778;7.206;2023-12-20T04:38:26;21.45;;;5.10;;
13590;SDS011;6866;50.778;7.206;2023-12-20T04:40:51;19.70;;;4.97;;
13590;SDS011;6866;50.778;7.206;2023-12-20T04:43:17;17.58;;;4.55;;
13590;SDS011;6866;50.778;7.206;2023-12-20T04:45:42;22.55;;;5.22;;
13590;SDS011;6866;50.778;7.206;2023-12-20T04:48:08;22.65;;;4.93;;
13590;SDS011;6866;50.778;7.206;2023-12-20T04:50:33;21.30;;;5.05;;
13590;SDS011;6866;50.778;7.206;2023-12-20T04:52:59;18.95;;;4.65;;
13590;SDS011;6866;50.778;7.206;2023-12-20T04:55:25;19.08;;;5.03;;
13590;SDS011;6866;50.778;7.206;2023-12-20T04:57:50;22.55;;;5.20;;
13590;SDS011;6866;50.778;7.206;2023-12-20T05:00:16;20.45;;;5.43;;
13590;SDS011;6866;50.778;7.206;2023-12-20T05:02:41;24.30;;;5.40;;
13590;SDS011;6866;50.778;7.206;2023-12-20T05:05:07;17.73;;;5.20;;
13590;SDS011;6866;50.778;7.206;2023-12-20T05:07:33;21.65;;;5.53;;
13590;SDS011;6866;50.778;7.206;2023-12-20T05:09:58;21.92;;;5.57;;
13590;SDS011;6866;50.778;7.206;2023-12-20T05:12:24;21.38;;;5.53;;
13590;SDS011;6866;50.778;7.206;2023-12-20T05:14:51;23.05;;;5.80;;
13590;SDS011;6866;50.778;7.206;2023-12-20T05:17:17;23.85;;;5.72;;
13590;SDS011;6866;50.778;7.206;2023-12-20T05:19:42;22.30;;;6.07;;
13590;SDS011;6866;50.778;7.206;2023-12-20T05:22:08;25.15;;;5.95;;
13590;SDS011;6866;50.778;7.206;2023-12-20T05:24:33;26.20;;;6.63;;
13590;SDS011;6866;50.778;7.206;2023-12-20T05:26:59;19.27;;;5.32;;
13590;SDS011;6866;50.778;7.206;2023-12-20T05:29:25;21.63;;;5.93;;
13590;SDS011;6866;50.778;7.206;2023-12-20T05:31:50;25.33;;;5.55;;
13590;SDS011;6866;50.778;7.206;2023-12-20T05:34:15;20.42;;;5.15;;
13590;SDS011;6866;50.778;7.206;2023-12-20T05:36:41;17.60;;;5.38;;
13590;SDS011;6866;50.778;7.206;2023-12-20T05:39:07;24.80;;;5.82;;
13590;SDS011;6866;50.778;7.206;2023-12-20T05:41:32;24.40;;;6.03;;
13590;SDS011;6866;50.778;7.206;2023-12-20T05:43:58;25.25;;;6.00;;
13590;SDS011;6866;50.778;7.206;2023-12-20T05:46:24;24.40;;;5.45;;
13590;SDS011;6866;50.778;7.206;2023-12-20T05:48:49;20.02;;;6.22;;
13590;SDS011;6866;50.778;7.206;2023-12-20T05:51:16;24.25;;;6.10;;
13590;SDS011;6866;50.778;7.206;2023-12-20T05:53:42;20.67;;;5.50;;
13590;SDS011;6866;50.778;7.206;2023-12-20T05:56:09;24.98;;;6.88;;
13590;SDS011;6866;50.778;7.206;2023-12-20T05:58:34;26.65;;;6.40;;
13590;SDS011;6866;50.778;7.206;2023-12-20T06:01:00;22.10;;;5.65;;
13590;SDS011;6866;50.778;7.206;2023-12-20T06:03:25;26.20;;;6.10;;
13590;SDS011;6866;50.778;7.206;2023-12-20T06:05:51;22.48;;;6.13;;
13590;SDS011;6866;50.778;7.206;2023-12-20T06:08:17;20.05;;;5.55;;
13590;SDS011;6866;50.778;7.206;2023-12-20T06:10:42;23.15;;;6.15;;
13590;SDS011;6866;50.778;7.206;2023-12-20T06:13:08;31.17;;;6.65;;
13590;SDS011;6866;50.778;7.206;2023-12-20T06:15:33;22.40;;;5.55;;
13590;SDS011;6866;50.778;7.206;2023-12-20T06:17:59;20.40;;;5.78;;
13590;SDS011;6866;50.778;7.206;2023-12-20T06:20:24;24.88;;;5.90;;
13590;SDS011;6866;50.778;7.206;2023-12-20T06:22:50;23.27;;;6.22;;
13590;SDS011;6866;50.778;7.206;2023-12-20T06:25:16;25.73;;;6.22;;
13590;SDS011;6866;50.778;7.206;2023-12-20T06:27:41;21.17;;;5.70;;
13590;SDS011;6866;50.778;7.206;2023-12-20T06:30:07;25.58;;;6.45;;
13590;SDS011;6866;50.778;7.206;2023-12-20T06:32:35;25.90;;;6.03;;
13590;SDS011;6866;50.778;7.206;2023-12-20T06:35:01;23.92;;;6.38;;
13590;SDS011;6866;50.778;7.206;2023-12-20T06:37:26;24.90;;;6.63;;
13590;SDS011;6866;50.778;7.206;2023-12-20T06:39:52;21.95;;;5.80;;
13590;SDS011;6866;50.778;7.206;2023-12-20T06:42:17;25.75;;;6.53;;
13590;SDS011;6866;50.778;7.206;2023-12-20T06:44:43;21.73;;;6.03;;
13590;SDS011;6866;50.778;7.206;2023-12-20T06:47:09;24.15;;;6.93;;
13590;SDS011;6866;50.778;7.206;2023-12-20T06:49:34;22.10;;;6.30;;
13590;SDS011;6866;50.778;7.206;2023-12-20T06:52:00;21.90;;;5.38;;
13590;SDS011;6866;50.778;7.206;2023-12-20T06:54:25;24.95;;;5.65;;
13590;SDS011;6866;50.778;7.206;2023-12-20T06:56:51;22.02;;;5.60;;
13590;SDS011;6866;50.778;7.206;2023-12-20T06:59:16;24.20;;;5.43;;
13590;SDS011;6866;50.778;7.206;2023-12-20T07:01:42;23.15;;;5.82;;
13590;SDS011;6866;50.778;7.206;2023-12-20T07:04:12;24.15;;;5.95;;
13590;SDS011;6866;50.778;7.206;2023-12-20T07:06:38;22.98;;;5.28;;
13590;SDS011;6866;50.778;7.206;2023-12-20T07:09:03;24.20;;;5.65;;
13590;SDS011;6866;50.778;7.206;2023-12-20T07:11:29;24.13;;;5.53;;
13590;SDS011;6866;50.778;7.206;2023-12-20T07:13:54;26.50;;;5.57;;
13590;SDS011;6866;50.778;7.206;2023-12-20T07:16:20;22.67;;;6.13;;
13590;SDS011;6866;50.778;7.206;2023-12-20T07:18:46;26.27;;;5.78;;
13590;SDS011;6866;50.778;7.206;2023-12-20T07:21:12;18.55;;;5.22;;
13590;SDS011;6866;50.778;7.206;2023-12-20T07:23:37;25.95;;;5.57;;
13590;SDS011;6866;50.778;7.206;2023-12-20T07:26:03;21.80;;;5.15;;
13590;SDS011;6866;50.778;7.206;2023-12-20T07:28:29;27.15;;;6.63;;
13590;SDS011;6866;50.778;7.206;2023-12-20T07:30:54;24.15;;;5.75;;
13590;SDS011;6866;50.778;7.206;2023-12-20T07:33:20;21.15;;;5.05;;
13590;SDS011;6866;50.778;7.206;2023-12-20T07:35:46;20.52;;;5.13;;
13590;SDS011;6866;50.778;7.206;2023-12-20T07:38:12;24.38;;;5.55;;
13590;SDS011;6866;50.778;7.206;2023-12-20T07:40:37;21.95;;;5.40;;
13590;SDS011;6866;50.778;7.206;2023-12-20T07:43:04;26.52;;;5.40;;
13590;SDS011;6866;50.778;7.206;2023-12-20T07:45:29;23.38;;;5.47;;
13590;SDS011;6866;50.778;7.206;2023-12-20T07:47:55;28.45;;;5.20;;
13590;SDS011;6866;50.778;7.206;2023-12-20T07:50:20;19.85;;;5.18;;
13590;SDS011;6866;50.778;7.206;2023-12-20T07:52:46;26.27;;;5.78;;
13590;SDS011;6866;50.778;7.206;2023-12-20T07:55:11;18.15;;;4.78;;
13590;SDS011;6866;50.778;7.206;2023-12-20T07:57:37;24.95;;;5.07;;
13590;SDS011;6866;50.778;7.206;2023-12-20T08:00:02;22.13;;;5.43;;
13590;SDS011;6866;50.778;7.206;2023-12-20T08:02:29;22.80;;;5.32;;
13590;SDS011;6866;50.778;7.206;2023-12-20T08:04:54;20.27;;;4.97;;
13590;SDS011;6866;50.778;7.206;2023-12-20T08:07:20;22.27;;;5.45;;
13590;SDS011;6866;50.778;7.206;2023-12-20T08:09:45;19.50;;;5.45;;
13590;SDS011;6866;50.778;7.206;2023-12-20T08:12:11;21.38;;;5.70;;
13590;SDS011;6866;50.778;7.206;2023-12-20T08:14:37;19.52;;;4.90;;
13590;SDS011;6866;50.778;7.206;2023-12-20T08:17:02;21.55;;;4.95;;
13590;SDS011;6866;50.778;7.206;2023-12-20T08:19:28;21.20;;;4.95;;
13590;SDS011;6866;50.778;7.206;2023-12-20T08:21:53;20.95;;;5.28;;
13590;SDS011;6866;50.778;7.206;2023-12-20T08:24:19;22.20;;;5.38;;
13590;SDS011;6866;50.778;7.206;2023-12-20T08:26:45;18.65;;;4.88;;
13590;SDS011;6866;50.778;7.206;2023-12-20T08:29:12;21.48;;;4.88;;
13590;SDS011;6866;50.778;7.206;2023-12-20T08:31:38;21.85;;;5.05;;
13590;SDS011;6866;50.778;7.206;2023-12-20T08:34:04;21.20;;;5.20;;
13590;SDS011;6866;50.778;7.206;2023-12-20T08:36:29;18.00;;;3.97;;
13590;SDS011;6866;50.778;7.206;2023-12-20T08:38:55;18.60;;;4.80;;
13590;SDS011;6866;50.778;7.206;2023-12-20T08:41:20;23.80;;;5.05;;
13590;SDS011;6866;50.778;7.206;2023-12-20T08:43:46;25.40;;;4.95;;
13590;SDS011;6866;50.778;7.206;2023-12-20T08:46:11;22.25;;;4.80;;
13590;SDS011;6866;50.778;7.206;2023-12-20T08:48:38;25.73;;;5.50;;
13590;SDS011;6866;50.778;7.206;2023-12-20T08:51:04;22.17;;;5.13;;
13590;SDS011;6866;50.778;7.206;2023-12-20T08:53:32;23.55;;;4.68;;
13590;SDS011;6866;50.778;7.206;2023-12-20T08:55:58;17.45;;;4.80;;
13590;SDS011;6866;50.778;7.206;2023-12-20T08:58:26;19.35;;;4.93;;
13590;SDS011;6866;50.778;7.206;2023-12-20T09:00:51;18.92;;;5.30;;
13590;SDS011;6866;50.778;7.206;2023-12-20T09:03:17;18.52;;;4.85;;
13590;SDS011;6866;50.778;7.206;2023-12-20T09:05:42;19.23;;;4.47;;
13590;SDS011;6866;50.778;7.206;2023-12-20T09:08:08;25.90;;;4.80;;
13590;SDS011;6866;50.778;7.206;2023-12-20T09:10:35;20.25;;;4.82;;
13590;SDS011;6866;50.778;7.206;2023-12-20T09:13:02;18.63;;;4.93;;
13590;SDS011;6866;50.778;7.206;2023-12-20T09:15:27;17.25;;;4.78;;
13590;SDS011;6866;50.778;7.206;2023-12-20T09:17:55;20.88;;;5.05;;
13590;SDS011;6866;50.778;7.206;2023-12-20T09:20:20;31.80;;;6.35;;
13590;SDS011;6866;50.778;7.206;2023-12-20T09:22:48;20.25;;;5.57;;
13590;SDS011;6866;50.778;7.206;2023-12-20T09:25:14;18.10;;;5.05;;
13590;SDS011;6866;50.778;7.206;2023-12-20T09:27:41;23.02;;;5.10;;
13590;SDS011;6866;50.778;7.206;2023-12-20T09:30:07;19.55;;;4.72;;
13590;SDS011;6866;50.778;7.206;2023-12-20T09:32:33;23.50;;;5.30;;
13590;SDS011;6866;50.778;7.206;2023-12-20T09:34:59;19.52;;;4.43;;
13590;SDS011;6866;50.778;7.206;2023-12-20T09:37:28;17.85;;;4.35;;
13590;SDS011;6866;50.778;7.206;2023-12-20T09:39:54;21.75;;;4.90;;
13590;SDS011;6866;50.778;7.206;2023-12-20T09:42:32;21.17;;;4.50;;
13590;SDS011;6866;50.778;7.206;2023-12-20T09:45:03;77.43;;;22.25;;
13590;SDS011;6866;50.778;7.206;2023-12-20T09:47:33;21.15;;;5.15;;
13590;SDS011;6866;50.778;7.206;2023-12-20T09:49:58;19.27;;;5.07;;
13590;SDS011;6866;50.778;7.206;2023-12-20T09:52:24;18.02;;;4.50;;
13590;SDS011;6866;50.778;7.206;2023-12-20T09:54:50;19.92;;;4.68;;
13590;SDS011;6866;50.778;7.206;2023-12-20T09:57:18;18.92;;;4.47;;
13590;SDS011;6866;50.778;7.206;2023-12-20T09:59:43;16.33;;;4.03;;
13590;SDS011;6866;50.778;7.206;2023-12-20T10:02:11;19.95;;;5.07;;
13590;SDS011;6866;50.778;7.206;2023-12-20T10:04:41;17.30;;;4.40;;
13590;SDS011;6866;50.778;7.206;2023-12-20T10:07:11;24.45;;;4.40;;
13590;SDS011;6866;50.778;7.206;2023-12-20T10:09:37;20.08;;;4.50;;
13590;SDS011;6866;50.778;7.206;2023-12-20T10:12:03;21.95;;;4.70;;
13590;SDS011;6866;50.778;7.206;2023-12-20T10:14:30;20.42;;;4.60;;
13590;SDS011;6866;50.778;7.206;2023-12-20T10:17:04;24.45;;;4.68;;
13590;SDS011;6866;50.778;7.206;2023-12-20T10:19:30;15.05;;;4.15;;
13590;SDS011;6866;50.778;7.206;2023-12-20T10:21:57;23.35;;;4.95;;
13590;SDS011;6866;50.778;7.206;2023-12-20T10:24:24;20.75;;;4.30;;
13590;SDS011;6866;50.778;7.206;2023-12-20T10:27:05;21.27;;;4.75;;
13590;SDS011;6866;50.778;7.206;2023-12-20T10:29:37;18.17;;;4.63;;
13590;SDS011;6866;50.778;7.206;2023-12-20T10:35:01;18.75;;;4.25;;
13590;SDS011;6866;50.778;7.206;2023-12-20T10:37:27;20.08;;;4.55;;
13590;SDS011;6866;50.778;7.206;2023-12-20T10:39:53;19.98;;;4.38;;
13590;SDS011;6866;50.778;7.206;2023-12-20T10:42:22;20.40;;;4.55;;
13590;SDS011;6866;50.778;7.206;2023-12-20T10:44:51;19.30;;;4.60;;
13590;SDS011;6866;50.778;7.206;2023-12-20T10:47:19;20.73;;;4.43;;
13590;SDS011;6866;50.778;7.206;2023-12-20T10:49:45;20.30;;;4.53;;
13590;SDS011;6866;50.778;7.206;2023-12-20T10:52:11;19.30;;;5.00;;
13590;SDS011;6866;50.778;7.206;2023-12-20T10:54:37;17.33;;;4.45;;
13590;SDS011;6866;50.778;7.206;2023-12-20T10:57:06;19.48;;;4.50;;
13590;SDS011;6866;50.778;7.206;2023-12-20T10:59:33;19.90;;;4.55;;
13590;SDS011;6866;50.778;7.206;2023-12-20T11:02:01;18.90;;;4.60;;
13590;SDS011;6866;50.778;7.206;2023-12-20T11:04:31;24.52;;;4.68;;
13590;SDS011;6866;50.778;7.206;2023-12-20T11:07:15;16.00;;;4.07;;
13590;SDS011;6866;50.778;7.206;2023-12-20T11:09:58;20.90;;;4.70;;
13590;SDS011;6866;50.778;7.206;2023-12-20T11:12:32;17.40;;;4.95;;
13590;SDS011;6866;50.778;7.206;2023-12-20T11:15:05;37.85;;;9.57;;
13590;SDS011;6866;50.778;7.206;2023-12-20T11:17:32;26.83;;;5.90;;
13590;SDS011;6866;50.778;7.206;2023-12-20T11:22:24;20.35;;;4.78;;
13590;SDS011;6866;50.778;7.206;2023-12-20T11:24:51;19.05;;;4.50;;
13590;SDS011;6866;50.778;7.206;2023-12-20T11:27:18;17.70;;;4.45;;
13590;SDS011;6866;50.778;7.206;2023-12-20T11:29:50;17.85;;;4.30;;
13590;SDS011;6866;50.778;7.206;2023-12-20T11:34:58;19.92;;;4.30;;
13590;SDS011;6866;50.778;7.206;2023-12-20T11:37:28;16.65;;;3.88;;
13590;SDS011;6866;50.778;7.206;2023-12-20T11:39:55;17.17;;;3.72;;
13590;SDS011;6866;50.778;7.206;2023-12-20T11:42:24;23.10;;;4.97;;
13590;SDS011;6866;50.778;7.206;2023-12-20T11:44:50;18.52;;;3.95;;
13590;SDS011;6866;50.778;7.206;2023-12-20T11:47:15;16.80;;;3.97;;
13590;SDS011;6866;50.778;7.206;2023-12-20T11:49:44;15.65;;;4.38;;
13590;SDS011;6866;50.778;7.206;2023-12-20T11:52:12;17.33;;;4.43;;
13590;SDS011;6866;50.778;7.206;2023-12-20T11:54:38;22.02;;;4.28;;
13590;SDS011;6866;50.778;7.206;2023-12-20T11:57:03;16.65;;;4.50;;
13590;SDS011;6866;50.778;7.206;2023-12-20T11:59:30;16.80;;;3.78;;
13590;SDS011;6866;50.778;7.206;2023-12-20T12:01:56;16.75;;;4.10;;
13590;SDS011;6866;50.778;7.206;2023-12-20T12:04:25;19.23;;;4.57;;
13590;SDS011;6866;50.778;7.206;2023-12-20T12:06:51;18.88;;;4.45;;
13590;SDS011;6866;50.778;7.206;2023-12-20T12:09:17;17.67;;;4.03;;
13590;SDS011;6866;50.778;7.206;2023-12-20T12:11:42;17.30;;;4.38;;
13590;SDS011;6866;50.778;7.206;2023-12-20T12:14:08;14.27;;;4.05;;
13590;SDS011;6866;50.778;7.206;2023-12-20T12:16:34;20.33;;;5.00;;
13590;SDS011;6866;50.778;7.206;2023-12-20T12:19:00;17.65;;;4.60;;
13590;SDS011;6866;50.778;7.206;2023-12-20T12:21:25;14.95;;;3.95;;
13590;SDS011;6866;50.778;7.206;2023-12-20T12:23:51;20.15;;;4.93;;
13590;SDS011;6866;50.778;7.206;2023-12-20T12:26:18;20.88;;;4.65;;
13590;SDS011;6866;50.778;7.206;2023-12-20T12:28:43;15.07;;;3.85;;
13590;SDS011;6866;50.778;7.206;2023-12-20T12:31:13;20.58;;;4.40;;
13590;SDS011;6866;50.778;7.206;2023-12-20T12:33:42;17.40;;;4.78;;
13590;SDS011;6866;50.778;7.206;2023-12-20T12:36:09;15.13;;;3.70;;
13590;SDS011;6866;50.778;7.206;2023-12-20T12:38:36;19.88;;;4.43;;
13590;SDS011;6866;50.778;7.206;2023-12-20T12:41:01;18.77;;;4.03;;
13590;SDS011;6866;50.778;7.206;2023-12-20T12:43:27;16.63;;;4.38;;
13590;SDS011;6866;50.778;7.206;2023-12-20T12:45:53;15.57;;;4.15;;
13590;SDS011;6866;50.778;7.206;2023-12-20T12:48:18;17.45;;;4.18;;
13590;SDS011;6866;50.778;7.206;2023-12-20T12:50:45;15.77;;;3.63;;
13590;SDS011;6866;50.778;7.206;2023-12-20T12:53:11;17.77;;;4.25;;
13590;SDS011;6866;50.778;7.206;2023-12-20T12:55:36;20.38;;;4.72;;
13590;SDS011;6866;50.778;7.206;2023-12-20T12:58:02;19.58;;;4.10;;
13590;SDS011;6866;50.778;7.206;2023-12-20T13:00:28;21.00;;;4.20;;
13590;SDS011;6866;50.778;7.206;2023-12-20T13:02:53;14.48;;;4.50;;
13590;SDS011;6866;50.778;7.206;2023-12-20T13:05:19;13.88;;;4.10;;
13590;SDS011;6866;50.778;7.206;2023-12-20T13:07:44;15.88;;;4.20;;
13590;SDS011;6866;50.778;7.206;2023-12-20T13:10:10;15.77;;;4.65;;
13590;SDS011;6866;50.778;7.206;2023-12-20T13:12:36;11.75;;;3.67;;
13590;SDS011;6866;50.778;7.206;2023-12-20T13:15:02;20.90;;;4.15;;
13590;SDS011;6866;50.778;7.206;2023-12-20T13:17:28;14.48;;;3.88;;
13590;SDS011;6866;50.778;7.206;2023-12-20T13:19:54;16.02;;;4.13;;
13590;SDS011;6866;50.778;7.206;2023-12-20T13:22:20;17.27;;;4.18;;
13590;SDS011;6866;50.778;7.206;2023-12-20T13:24:45;17.38;;;4.38;;
13590;SDS011;6866;50.778;7.206;2023-12-20T13:27:11;19.10;;;4.28;;
13590;SDS011;6866;50.778;7.206;2023-12-20T13:29:36;15.43;;;4.30;;
13590;SDS011;6866;50.778;7.206;2023-12-20T13:32:02;17.45;;;4.30;;
13590;SDS011;6866;50.778;7.206;2023-12-20T13:34:28;20.23;;;4.40;;
13590;SDS011;6866;50.778;7.206;2023-12-20T13:36:54;22.00;;;4.78;;
13590;SDS011;6866;50.778;7.206;2023-12-20T13:39:20;16.85;;;4.57;;
13590;SDS011;6866;50.778;7.206;2023-12-20T13:41:46;18.02;;;4.55;;
13590;SDS011;6866;50.778;7.206;2023-12-20T13:44:12;23.17;;;5.20;;
13590;SDS011;6866;50.778;7.206;2023-12-20T13:46:38;21.23;;;4.53;;
13590;SDS011;6866;50.778;7.206;2023-12-20T13:49:05;15.82;;;4.40;;
13590;SDS011;6866;50.778;7.206;2023-12-20T13:51:30;17.67;;;4.38;;
13590;SDS011;6866;50.778;7.206;2023-12-20T13:53:56;16.00;;;4.50;;
13590;SDS011;6866;50.778;7.206;2023-12-20T13:56:22;20.30;;;4.75;;
13590;SDS011;6866;50.778;7.206;2023-12-20T13:58:48;18.83;;;4.63;;
13590;SDS011;6866;50.778;7.206;2023-12-20T14:01:15;17.83;;;4.78;;
13590;SDS011;6866;50.778;7.206;2023-12-20T14:03:41;15.18;;;5.13;;
13590;SDS011;6866;50.778;7.206;2023-12-20T14:06:06;17.85;;;4.78;;
13590;SDS011;6866;50.778;7.206;2023-12-20T14:08:32;20.92;;;5.25;;
13590;SDS011;6866;50.778;7.206;2023-12-20T14:10:58;24.33;;;5.78;;
13590;SDS011;6866;50.778;7.206;2023-12-20T14:13:23;21.20;;;5.82;;
13590;SDS011;6866;50.778;7.206;2023-12-20T14:15:49;15.43;;;4.75;;
13590;SDS011;6866;50.778;7.206;2023-12-20T14:18:14;17.70;;;4.47;;
13590;SDS011;6866;50.778;7.206;2023-12-20T14:20:40;17.65;;;4.90;;
13590;SDS011;6866;50.778;7.206;2023-12-20T14:23:07;14.00;;;4.53;;
13590;SDS011;6866;50.778;7.206;2023-12-20T14:25:36;16.77;;;4.68;;
13590;SDS011;6866;50.778;7.206;2023-12-20T14:28:04;17.67;;;4.82;;
13590;SDS011;6866;50.778;7.206;2023-12-20T14:30:30;13.80;;;4.30;;
13590;SDS011;6866;50.778;7.206;2023-12-20T14:32:56;17.38;;;4.55;;
13590;SDS011;6866;50.778;7.206;2023-12-20T14:35:21;17.08;;;4.53;;
13590;SDS011;6866;50.778;7.206;2023-12-20T14:37:47;15.57;;;4.25;;
13590;SDS011;6866;50.778;7.206;2023-12-20T14:40:13;14.00;;;4.00;;
13590;SDS011;6866;50.778;7.206;2023-12-20T14:42:44;11.80;;;3.95;;
13590;SDS011;6866;50.778;7.206;2023-12-20T14:45:10;13.10;;;3.60;;
13590;SDS011;6866;50.778;7.206;2023-12-20T14:47:36;9.68;;;3.20;;
13590;SDS011;6866;50.778;7.206;2023-12-20T14:50:05;9.95;;;3.20;;
13590;SDS011;6866;50.778;7.206;2023-12-20T14:52:32;8.60;;;2.95;;
13590;SDS011;6866;50.778;7.206;2023-12-20T14:54:59;9.30;;;2.97;;